Time;durP1;ratioP1;P1;durP2;ratioP2;P2;SDS_P1;SDS_P2;PMS_P1;PMS_P2;Temp;Humidity;BMP_temperature;BMP_pressure;BME280_temperature;BME280_humidity;BME280_pressure;Samples;Min_cycle;Max_cycle;Signal;HPM_P1;HPM_P2
2023/04/18 00:01:56;;;;;;;16.47;9.93;;;7.70;99.90;;;;;;4207341;28;20457;-74
2023/04/18 00:03:58;;;;;;;16.63;10.27;;;7.70;99.90;;;;;;4207724;28;20538;-73
2023/04/18 00:06:01;;;;;;;16.17;10.10;;;7.70;99.90;;;;;;4202845;28;20518;-74
2023/04/18 00:08:04;;;;;;;16.73;10.23;;;7.70;99.90;;;;;;4211499;28;20213;-73
2023/04/18 00:10:07;;;;;;;16.03;9.90;;;7.70;99.90;;;;;;4207422;28;20494;-74
2023/04/18 00:12:10;;;;;;;15.30;9.50;;;7.70;99.90;;;;;;4211643;28;20533;-73
2023/04/18 00:14:12;;;;;;;16.27;10.20;;;7.70;99.90;;;;;;4193176;28;20699;-74
2023/04/18 00:16:15;;;;;;;17.63;10.40;;;7.70;99.90;;;;;;4205531;28;20918;-74
2023/04/18 00:18:17;;;;;;;16.63;9.87;;;7.70;99.90;;;;;;4206088;28;20455;-74
2023/04/18 00:20:19;;;;;;;16.80;10.10;;;7.70;99.90;;;;;;4208997;28;20459;-73
2023/04/18 00:22:21;;;;;;;16.53;10.10;;;7.70;99.90;;;;;;4205226;28;20231;-74
2023/04/18 00:24:23;;;;;;;15.97;9.20;;;7.70;99.90;;;;;;4210562;28;20447;-74
2023/04/18 00:26:25;;;;;;;15.67;9.47;;;7.70;99.90;;;;;;4212783;28;20610;-73
2023/04/18 00:28:27;;;;;;;14.80;9.27;;;7.60;99.90;;;;;;4215368;28;20729;-73
2023/04/18 00:30:29;;;;;;;15.97;9.97;;;7.70;99.90;;;;;;4211720;28;20538;-74
2023/04/18 00:32:33;;;;;;;14.10;9.10;;;7.70;99.90;;;;;;4205073;28;20454;-73
2023/04/18 00:34:35;;;;;;;15.10;9.17;;;7.70;99.90;;;;;;4208788;28;20240;-73
2023/04/18 00:36:37;;;;;;;16.47;9.83;;;7.70;99.90;;;;;;4209589;28;21048;-73
2023/04/18 00:38:39;;;;;;;15.50;9.47;;;7.70;99.90;;;;;;4205938;28;20513;-73
2023/04/18 00:40:41;;;;;;;14.50;9.23;;;7.70;99.90;;;;;;4205328;28;20497;-74
2023/04/18 00:42:43;;;;;;;16.23;9.57;;;7.70;99.90;;;;;;4209890;28;20467;-74
2023/04/18 00:44:45;;;;;;;13.77;8.83;;;7.70;99.90;;;;;;4208912;28;20247;-73
2023/04/18 00:46:47;;;;;;;17.40;9.37;;;7.70;99.90;;;;;;4206983;28;20232;-73
2023/04/18 00:48:50;;;;;;;14.53;9.37;;;7.60;99.90;;;;;;4209377;28;20490;-73
2023/04/18 00:50:53;;;;;;;16.80;9.57;;;7.70;99.90;;;;;;4207997;28;20213;-73
2023/04/18 00:52:55;;;;;;;15.47;8.63;;;7.70;99.90;;;;;;4208014;28;20513;-73
2023/04/18 00:54:57;;;;;;;17.07;9.37;;;7.70;99.90;;;;;;4209663;28;20901;-73
2023/04/18 00:57:00;;;;;;;19.90;10.37;;;7.70;99.90;;;;;;4204557;28;20205;-73
2023/04/18 00:59:02;;;;;;;15.97;9.40;;;7.70;99.90;;;;;;4208986;28;20566;-74
2023/04/18 01:01:04;;;;;;;16.80;9.40;;;7.70;99.90;;;;;;4211934;28;20951;-73
2023/04/18 01:03:07;;;;;;;20.73;10.50;;;7.70;99.90;;;;;;4209711;28;20456;-73
2023/04/18 01:05:11;;;;;;;18.23;10.23;;;7.70;99.90;;;;;;4208993;28;20201;-73
2023/04/18 01:07:13;;;;;;;22.77;10.77;;;7.70;99.90;;;;;;4209954;28;20237;-74
2023/04/18 01:09:15;;;;;;;18.30;10.40;;;7.70;99.90;;;;;;4205550;28;20691;-73
2023/04/18 01:11:17;;;;;;;20.50;10.63;;;7.70;99.90;;;;;;4209227;28;20213;-73
2023/04/18 01:13:21;;;;;;;20.50;11.33;;;7.70;99.90;;;;;;4203429;28;20459;-74
2023/04/18 01:15:23;;;;;;;18.17;10.67;;;7.70;99.90;;;;;;4203476;28;20211;-73
2023/04/18 01:17:27;;;;;;;21.03;11.20;;;7.70;99.90;;;;;;4210546;28;20197;-73
2023/04/18 01:19:29;;;;;;;22.00;11.47;;;7.70;99.90;;;;;;4211339;28;20256;-74
2023/04/18 01:21:35;;;;;;;23.50;11.30;;;7.70;99.90;;;;;;4207737;28;20212;-74
2023/04/18 01:23:37;;;;;;;23.57;11.13;;;7.70;99.90;;;;;;4208452;28;20213;-74
2023/04/18 01:25:41;;;;;;;25.17;12.63;;;7.70;99.90;;;;;;4208157;28;20205;-74
2023/04/18 01:27:43;;;;;;;26.50;14.07;;;7.70;99.90;;;;;;4212103;28;20699;-74
2023/04/18 01:29:44;;;;;;;27.40;13.53;;;7.70;99.90;;;;;;4213456;28;20900;-73
2023/04/18 01:31:46;;;;;;;24.60;13.70;;;7.70;99.90;;;;;;4213639;28;20225;-74
2023/04/18 01:33:48;;;;;;;29.30;14.60;;;7.70;99.90;;;;;;4208435;28;20570;-74
2023/04/18 01:35:50;;;;;;;24.07;13.20;;;7.70;99.90;;;;;;4208527;28;20458;-73
2023/04/18 01:37:52;;;;;;;28.97;14.10;;;7.80;99.90;;;;;;4212414;28;20296;-74
2023/04/18 01:39:54;;;;;;;26.33;13.77;;;7.80;99.90;;;;;;4209907;28;20482;-74
2023/04/18 01:41:57;;;;;;;29.53;14.60;;;7.80;99.90;;;;;;4210659;28;20462;-74
2023/04/18 01:44:00;;;;;;;26.93;13.83;;;7.80;99.90;;;;;;4210832;28;20308;-74
2023/04/18 01:46:01;;;;;;;27.83;14.70;;;7.80;99.90;;;;;;4209964;28;20221;-73
2023/04/18 01:48:04;;;;;;;24.27;14.13;;;7.80;99.90;;;;;;4210672;28;20901;-74
2023/04/18 01:50:07;;;;;;;26.43;14.23;;;7.80;99.90;;;;;;4208562;28;20289;-73
2023/04/18 01:52:08;;;;;;;25.50;14.03;;;7.80;99.90;;;;;;4205898;28;20547;-73
2023/04/18 01:54:10;;;;;;;24.43;13.57;;;7.80;99.90;;;;;;4212659;28;20295;-73
2023/04/18 01:56:12;;;;;;;28.70;15.33;;;7.80;99.90;;;;;;4211309;28;20237;-73
2023/04/18 01:58:17;;;;;;;26.97;14.27;;;7.80;99.90;;;;;;4210559;28;20209;-73
2023/04/18 02:00:20;;;;;;;27.37;14.50;;;7.80;99.90;;;;;;4208585;28;20209;-74
2023/04/18 02:02:22;;;;;;;25.63;14.07;;;7.80;99.90;;;;;;4209204;28;20546;-74
2023/04/18 02:04:25;;;;;;;27.73;15.00;;;7.80;99.90;;;;;;4211635;28;20650;-74
2023/04/18 02:06:27;;;;;;;23.83;13.60;;;7.80;99.90;;;;;;4209165;28;20253;-74
2023/04/18 02:08:29;;;;;;;27.33;14.60;;;7.80;99.90;;;;;;4205170;28;20271;-73
2023/04/18 02:10:31;;;;;;;28.27;15.27;;;7.80;99.90;;;;;;4208044;28;20281;-74
2023/04/18 02:12:33;;;;;;;27.10;15.07;;;7.80;99.90;;;;;;4209947;28;20462;-74
2023/04/18 02:14:36;;;;;;;26.03;15.13;;;7.80;99.90;;;;;;4208689;28;20212;-74
2023/04/18 02:16:38;;;;;;;25.10;14.40;;;7.90;99.90;;;;;;4210105;28;20215;-74
2023/04/18 02:18:41;;;;;;;24.90;14.73;;;7.90;99.90;;;;;;4210231;28;20275;-74
2023/04/18 02:20:43;;;;;;;23.43;13.83;;;7.80;99.90;;;;;;4209963;28;20223;-73
2023/04/18 02:22:47;;;;;;;24.27;14.23;;;7.90;99.90;;;;;;4195171;28;20210;-74
2023/04/18 02:24:48;;;;;;;24.63;14.37;;;7.90;99.90;;;;;;4210426;28;20298;-73
2023/04/18 02:26:50;;;;;;;26.27;15.03;;;7.90;99.90;;;;;;4208393;28;20221;-73
2023/04/18 02:28:52;;;;;;;28.33;15.27;;;7.90;99.90;;;;;;4209168;28;20308;-73
2023/04/18 02:30:55;;;;;;;28.27;15.37;;;7.90;99.90;;;;;;4209566;28;20197;-73
2023/04/18 02:32:57;;;;;;;24.10;14.47;;;7.90;99.90;;;;;;4208728;28;20562;-74
2023/04/18 02:35:01;;;;;;;27.67;15.40;;;7.90;99.90;;;;;;4205749;28;20583;-74
2023/04/18 02:37:03;;;;;;;27.30;15.40;;;7.90;99.90;;;;;;4210388;28;20197;-73
2023/04/18 02:39:05;;;;;;;25.90;15.07;;;7.90;99.90;;;;;;4208790;28;20483;-73
2023/04/18 02:41:06;;;;;;;27.57;16.03;;;7.90;99.90;;;;;;4209983;28;20843;-74
2023/04/18 02:43:08;;;;;;;26.00;15.23;;;7.90;99.90;;;;;;4205534;28;20212;-73
2023/04/18 02:45:11;;;;;;;30.43;15.93;;;7.90;99.90;;;;;;4210410;28;20213;-73
2023/04/18 02:47:14;;;;;;;27.43;15.47;;;7.90;99.90;;;;;;4211072;28;20687;-73
2023/04/18 02:49:16;;;;;;;28.67;16.50;;;7.90;99.90;;;;;;4208082;28;20249;-72
2023/04/18 02:51:18;;;;;;;27.13;15.83;;;7.90;99.90;;;;;;4210370;28;21323;-73
2023/04/18 02:53:22;;;;;;;25.60;16.10;;;7.90;99.90;;;;;;4208358;28;20202;-73
2023/04/18 02:55:25;;;;;;;27.90;16.33;;;7.90;99.90;;;;;;4207095;28;20201;-74
2023/04/18 02:57:27;;;;;;;27.77;16.47;;;7.90;99.90;;;;;;4206738;28;20224;-74
2023/04/18 02:59:29;;;;;;;24.47;15.43;;;7.90;99.90;;;;;;4206878;28;20358;-74
2023/04/18 03:01:31;;;;;;;25.30;15.37;;;7.90;99.90;;;;;;4211207;28;20201;-74
2023/04/18 03:03:34;;;;;;;26.67;16.00;;;7.90;99.90;;;;;;4205570;28;20959;-74
2023/04/18 03:05:38;;;;;;;24.77;15.70;;;7.90;99.90;;;;;;4210529;28;20498;-74
2023/04/18 03:07:40;;;;;;;28.53;15.53;;;7.90;99.90;;;;;;4191761;28;20280;-74
2023/04/18 03:09:42;;;;;;;28.10;15.77;;;7.90;99.90;;;;;;4205593;28;20229;-74
2023/04/18 03:11:44;;;;;;;25.70;15.20;;;7.90;99.90;;;;;;4207510;28;20890;-73
2023/04/18 03:13:45;;;;;;;25.90;15.13;;;7.90;99.90;;;;;;4193593;28;20217;-74
2023/04/18 03:15:47;;;;;;;24.10;14.57;;;7.90;99.90;;;;;;4208688;28;20805;-74
2023/04/18 03:17:51;;;;;;;27.07;15.97;;;7.90;99.90;;;;;;4202149;28;20281;-73
2023/04/18 03:19:54;;;;;;;27.17;16.43;;;7.90;99.90;;;;;;4204238;28;20745;-73
2023/04/18 03:21:56;;;;;;;28.47;15.67;;;7.90;99.90;;;;;;4206607;28;20442;-73
2023/04/18 03:23:58;;;;;;;24.70;15.33;;;7.90;99.90;;;;;;4206954;28;20205;-73
2023/04/18 03:26:00;;;;;;;26.60;15.77;;;7.90;99.90;;;;;;4193709;28;20260;-73
2023/04/18 03:28:02;;;;;;;23.43;14.67;;;7.90;99.90;;;;;;4206716;28;21006;-73
2023/04/18 03:30:05;;;;;;;23.67;15.03;;;7.90;99.90;;;;;;4204234;28;20287;-73
2023/04/18 03:32:07;;;;;;;24.27;14.37;;;7.90;99.90;;;;;;4205315;28;20447;-73
2023/04/18 03:34:08;;;;;;;24.63;15.00;;;7.90;99.90;;;;;;4209597;28;20235;-73
2023/04/18 03:36:14;;;;;;;21.73;14.13;;;7.90;99.90;;;;;;4206596;28;20223;-73
2023/04/18 03:38:16;;;;;;;25.07;15.67;;;7.90;99.90;;;;;;4202463;28;20205;-73
2023/04/18 03:40:18;;;;;;;29.97;15.70;;;7.90;99.90;;;;;;4204563;28;20293;-81
2023/04/18 03:42:20;;;;;;;21.60;13.83;;;7.90;99.90;;;;;;4209750;28;20202;-79
2023/04/18 03:44:22;;;;;;;23.83;14.77;;;7.90;99.90;;;;;;4207909;28;20244;-73
2023/04/18 03:46:24;;;;;;;24.37;14.60;;;7.90;99.90;;;;;;4209011;28;20526;-73
2023/04/18 03:48:29;;;;;;;23.47;14.30;;;7.90;99.90;;;;;;4208670;28;20313;-73
2023/04/18 03:50:31;;;;;;;22.17;14.10;;;7.80;99.90;;;;;;4212829;28;20233;-73
2023/04/18 03:52:34;;;;;;;20.47;13.10;;;7.90;99.90;;;;;;4185397;28;20213;-73
2023/04/18 03:54:36;;;;;;;20.50;12.93;;;7.90;99.90;;;;;;4205357;28;20451;-73
2023/04/18 03:56:38;;;;;;;19.67;12.63;;;7.80;99.90;;;;;;4209213;28;20209;-72
2023/04/18 03:58:40;;;;;;;23.17;12.60;;;7.90;99.90;;;;;;4191788;28;20578;-73
2023/04/18 04:00:42;;;;;;;20.27;12.37;;;7.80;99.90;;;;;;4206722;28;20648;-74
2023/04/18 04:02:46;;;;;;;20.50;12.00;;;7.80;99.90;;;;;;4208150;28;20962;-73
2023/04/18 04:04:48;;;;;;;19.57;12.80;;;7.80;99.90;;;;;;4209195;28;20205;-73
2023/04/18 04:06:53;;;;;;;19.07;12.50;;;7.80;99.90;;;;;;4212346;28;20537;-73
2023/04/18 04:08:57;;;;;;;20.33;12.43;;;7.80;99.90;;;;;;4211969;28;20278;-74
2023/04/18 04:10:59;;;;;;;19.23;11.80;;;7.80;99.90;;;;;;4207936;28;20942;-73
2023/04/18 04:13:00;;;;;;;17.57;11.33;;;7.80;99.90;;;;;;4206787;28;20451;-73
2023/04/18 04:15:03;;;;;;;19.43;12.87;;;7.80;99.90;;;;;;4208052;28;20477;-73
2023/04/18 04:17:05;;;;;;;18.67;11.80;;;7.70;99.90;;;;;;4208089;28;20451;-73
2023/04/18 04:19:07;;;;;;;18.17;11.57;;;7.80;99.90;;;;;;4212289;28;20524;-74
2023/04/18 04:21:10;;;;;;;19.43;12.50;;;7.80;99.90;;;;;;4205376;28;20447;-73
2023/04/18 04:23:12;;;;;;;19.17;12.07;;;7.70;99.90;;;;;;4193911;28;20499;-73
2023/04/18 04:25:17;;;;;;;19.90;12.23;;;7.70;99.90;;;;;;4211704;28;20494;-73
2023/04/18 04:27:19;;;;;;;19.40;11.97;;;7.70;99.90;;;;;;4192574;28;20710;-73
2023/04/18 04:29:22;;;;;;;19.90;12.30;;;7.70;99.90;;;;;;4189477;28;20611;-73
2023/04/18 04:31:24;;;;;;;19.33;12.50;;;7.70;99.90;;;;;;4212165;28;20435;-73
2023/04/18 04:33:27;;;;;;;20.73;12.47;;;7.70;99.90;;;;;;4210099;28;20471;-73
2023/04/18 04:35:30;;;;;;;20.27;12.23;;;7.70;99.90;;;;;;4204378;28;20879;-73
2023/04/18 04:37:33;;;;;;;19.47;12.27;;;7.70;99.90;;;;;;4207742;28;20447;-73
2023/04/18 04:39:35;;;;;;;19.70;11.97;;;7.70;99.90;;;;;;4194963;28;20300;-74
2023/04/18 04:41:39;;;;;;;19.40;12.37;;;7.70;99.90;;;;;;4205338;28;20606;-73
2023/04/18 04:43:41;;;;;;;19.40;12.10;;;7.70;99.90;;;;;;4210579;28;20493;-73
2023/04/18 04:45:44;;;;;;;20.27;11.87;;;7.70;99.90;;;;;;4214496;28;20450;-73
2023/04/18 04:47:45;;;;;;;18.00;11.53;;;7.70;99.90;;;;;;4208350;28;20486;-73
2023/04/18 04:49:47;;;;;;;19.33;11.80;;;7.70;99.90;;;;;;4184414;28;20507;-73
2023/04/18 04:51:51;;;;;;;18.27;11.13;;;7.70;99.90;;;;;;4199810;28;20213;-73
2023/04/18 04:53:53;;;;;;;18.60;11.40;;;7.70;99.90;;;;;;4195184;28;20456;-73
2023/04/18 04:55:55;;;;;;;19.73;12.27;;;7.70;99.90;;;;;;4191078;28;21106;-73
2023/04/18 04:57:59;;;;;;;21.07;12.07;;;7.70;99.90;;;;;;4209310;28;20193;-73
2023/04/18 05:00:06;;;;;;;18.17;11.70;;;7.70;99.90;;;;;;4209352;28;20588;-73
2023/04/18 05:02:08;;;;;;;20.00;10.97;;;7.70;99.90;;;;;;4205782;28;20209;-73
2023/04/18 05:04:11;;;;;;;16.87;10.83;;;7.70;99.90;;;;;;4206648;28;20512;-73
2023/04/18 05:06:14;;;;;;;18.50;10.83;;;7.70;99.90;;;;;;4206253;28;20458;-72
2023/04/18 05:08:16;;;;;;;16.77;10.63;;;7.70;99.90;;;;;;4185817;28;20937;-73
2023/04/18 05:10:18;;;;;;;19.10;10.43;;;7.70;99.90;;;;;;4202859;28;20853;-73
2023/04/18 05:12:20;;;;;;;18.80;11.20;;;7.70;99.90;;;;;;4194965;28;20458;-73
2023/04/18 05:14:24;;;;;;;18.27;10.17;;;7.70;99.90;;;;;;4207500;28;20201;-73
2023/04/18 05:16:26;;;;;;;20.90;10.80;;;7.70;99.90;;;;;;4210363;28;20922;-73
2023/04/18 05:18:28;;;;;;;17.53;10.70;;;7.80;99.90;;;;;;4206229;28;20316;-73
2023/04/18 05:20:30;;;;;;;16.60;10.37;;;7.70;99.90;;;;;;4211666;28;20691;-73
2023/04/18 05:22:32;;;;;;;17.67;10.50;;;7.80;99.90;;;;;;4213117;28;20608;-73
2023/04/18 05:24:34;;;;;;;15.73;10.73;;;7.80;99.90;;;;;;4207732;28;20284;-73
2023/04/18 05:26:36;;;;;;;18.57;10.50;;;7.70;99.90;;;;;;4190799;28;20215;-73
2023/04/18 05:28:38;;;;;;;15.67;9.57;;;7.80;99.90;;;;;;4215199;28;20315;-73
2023/04/18 05:30:42;;;;;;;15.77;9.63;;;7.80;99.90;;;;;;4212763;28;20711;-73
2023/04/18 05:32:44;;;;;;;20.77;10.40;;;7.80;99.90;;;;;;4210403;28;20292;-73
2023/04/18 05:34:46;;;;;;;18.90;10.43;;;7.80;99.90;;;;;;4211781;28;20287;-73
2023/04/18 05:36:48;;;;;;;17.57;9.97;;;7.80;99.90;;;;;;4208533;28;20278;-73
2023/04/18 05:38:50;;;;;;;17.57;10.10;;;7.80;99.90;;;;;;4205208;28;20259;-73
2023/04/18 05:40:54;;;;;;;18.27;10.87;;;7.80;99.90;;;;;;4213692;28;20326;-73
2023/04/18 05:42:56;;;;;;;17.97;10.20;;;7.80;99.90;;;;;;4209478;28;21498;-72
2023/04/18 05:44:58;;;;;;;16.57;10.30;;;7.80;99.90;;;;;;4210441;28;20486;-73
2023/04/18 05:47:04;;;;;;;17.03;10.90;;;7.80;99.90;;;;;;4196663;28;20687;-73
2023/04/18 05:49:06;;;;;;;17.17;10.37;;;7.80;99.90;;;;;;4203234;28;20471;-73
2023/04/18 05:51:08;;;;;;;17.03;10.40;;;7.80;99.90;;;;;;4205966;28;20204;-73
2023/04/18 05:53:10;;;;;;;17.70;10.50;;;7.80;99.90;;;;;;4210422;28;20492;-73
2023/04/18 05:55:12;;;;;;;17.80;10.50;;;7.80;99.90;;;;;;4203263;28;20205;-73
2023/04/18 05:57:13;;;;;;;17.07;10.07;;;7.90;99.90;;;;;;4208520;28;20219;-73
2023/04/18 05:59:15;;;;;;;18.00;10.80;;;7.90;99.90;;;;;;4208024;28;20464;-73
2023/04/18 06:01:18;;;;;;;17.90;10.57;;;7.90;99.90;;;;;;4193648;28;20210;-73
2023/04/18 06:03:21;;;;;;;17.43;10.27;;;7.90;99.90;;;;;;4192199;28;20215;-73
2023/04/18 06:05:23;;;;;;;16.23;9.70;;;7.90;99.90;;;;;;4214332;28;20617;-73
2023/04/18 06:07:25;;;;;;;18.27;10.90;;;7.90;99.90;;;;;;4210719;28;20289;-73
2023/04/18 06:09:27;;;;;;;17.80;10.20;;;8.00;99.90;;;;;;4208550;28;20301;-76
2023/04/18 06:11:32;;;;;;;19.10;10.43;;;7.90;99.90;;;;;;4213314;28;20212;-76
2023/04/18 06:13:34;;;;;;;17.17;9.97;;;8.10;99.90;;;;;;4201671;28;20292;-73
2023/04/18 06:15:36;;;;;;;13.90;9.03;;;8.10;99.90;;;;;;4210831;28;20845;-74
2023/04/18 06:17:38;;;;;;;17.27;10.43;;;8.10;99.90;;;;;;4211105;28;20209;-74
2023/04/18 06:19:41;;;;;;;17.63;10.57;;;8.10;99.90;;;;;;4211470;28;20222;-74
2023/04/18 06:21:43;;;;;;;17.60;10.10;;;8.10;99.90;;;;;;4208110;28;20602;-74
2023/04/18 06:23:45;;;;;;;16.77;9.90;;;8.20;99.90;;;;;;4193676;28;20847;-74
2023/04/18 06:25:47;;;;;;;16.60;9.67;;;8.20;99.90;;;;;;4215437;28;20202;-74
2023/04/18 06:27:49;;;;;;;17.07;10.63;;;8.20;99.90;;;;;;4208161;28;20302;-73
2023/04/18 06:29:51;;;;;;;16.77;9.67;;;8.20;99.90;;;;;;4213904;28;20253;-74
2023/04/18 06:31:53;;;;;;;16.13;9.90;;;8.20;99.90;;;;;;4210752;28;20224;-74
2023/04/18 06:33:55;;;;;;;19.53;10.80;;;8.20;99.90;;;;;;4209363;28;20206;-74
2023/04/18 06:36:00;;;;;;;15.93;9.63;;;8.20;99.90;;;;;;4189897;28;20294;-73
2023/04/18 06:38:02;;;;;;;17.10;9.67;;;8.20;99.90;;;;;;4188837;28;20211;-74
2023/04/18 06:40:07;;;;;;;15.40;9.27;;;8.20;99.90;;;;;;4188616;28;20209;-73
2023/04/18 06:42:10;;;;;;;16.93;9.83;;;8.20;99.90;;;;;;4192712;28;20671;-74
2023/04/18 06:44:12;;;;;;;16.03;9.30;;;8.20;99.90;;;;;;4191358;28;20212;-73
2023/04/18 06:46:14;;;;;;;18.20;9.80;;;8.20;99.90;;;;;;4210817;28;20224;-73
2023/04/18 06:48:16;;;;;;;15.97;8.90;;;8.20;99.90;;;;;;4208324;28;20227;-74
2023/04/18 06:50:19;;;;;;;16.77;9.57;;;8.20;99.90;;;;;;4209346;28;20190;-74
2023/04/18 06:52:22;;;;;;;15.93;8.90;;;8.40;99.90;;;;;;4213316;28;20285;-74
2023/04/18 06:54:24;;;;;;;16.23;8.43;;;8.20;99.90;;;;;;4211031;28;20263;-74
2023/04/18 06:56:26;;;;;;;17.60;9.50;;;8.20;99.90;;;;;;4209502;28;20216;-73
2023/04/18 06:58:29;;;;;;;15.00;8.87;;;8.20;99.90;;;;;;4192035;28;20295;-74
2023/04/18 07:00:30;;;;;;;15.13;8.90;;;8.20;99.90;;;;;;4209973;28;20255;-73
2023/04/18 07:02:34;;;;;;;15.13;9.03;;;8.30;99.90;;;;;;4210766;28;20202;-73
2023/04/18 07:04:36;;;;;;;17.33;9.47;;;8.30;99.90;;;;;;4207942;28;20708;-74
2023/04/18 07:06:38;;;;;;;17.23;9.20;;;8.40;99.90;;;;;;4183464;28;20233;-73
2023/04/18 07:08:42;;;;;;;19.93;9.77;;;8.50;99.90;;;;;;4213757;28;20240;-73
2023/04/18 07:10:44;;;;;;;17.07;9.40;;;8.50;99.90;;;;;;4206362;28;20253;-74
2023/04/18 07:12:46;;;;;;;15.87;8.90;;;8.50;99.90;;;;;;4208279;28;20205;-74
2023/04/18 07:14:48;;;;;;;15.10;8.43;;;8.50;99.90;;;;;;4212232;28;20202;-74
2023/04/18 07:16:50;;;;;;;15.03;8.27;;;8.60;99.90;;;;;;4207790;28;20199;-74
2023/04/18 07:18:52;;;;;;;15.47;8.90;;;8.70;99.90;;;;;;4212085;28;20310;-74
2023/04/18 07:20:54;;;;;;;14.43;8.90;;;8.70;99.90;;;;;;4188294;28;20264;-74
2023/04/18 07:22:56;;;;;;;18.40;8.90;;;8.70;99.90;;;;;;4205501;28;20232;-74
2023/04/18 07:24:59;;;;;;;15.37;8.90;;;8.80;99.90;;;;;;4213977;28;20202;-74
2023/04/18 07:27:02;;;;;;;15.33;8.90;;;8.90;99.90;;;;;;4206680;28;20210;-74
2023/04/18 07:29:04;;;;;;;18.23;9.57;;;8.80;99.90;;;;;;4215534;28;20642;-73
2023/04/18 07:31:09;;;;;;;14.57;8.73;;;8.90;99.90;;;;;;4217612;28;20670;-74
2023/04/18 07:33:11;;;;;;;13.97;8.50;;;8.80;99.90;;;;;;4196380;28;21438;-74
2023/04/18 07:35:14;;;;;;;15.27;8.63;;;8.90;99.90;;;;;;4208121;28;20211;-74
2023/04/18 07:37:17;;;;;;;13.67;8.80;;;8.90;99.90;;;;;;4212641;28;20193;-74
2023/04/18 07:39:19;;;;;;;14.63;8.70;;;8.90;99.90;;;;;;4210955;28;20218;-73
2023/04/18 07:41:23;;;;;;;12.73;8.20;;;8.90;99.90;;;;;;4203011;28;20207;-74
2023/04/18 07:43:25;;;;;;;15.03;8.60;;;8.90;99.90;;;;;;4206000;28;20605;-74
2023/04/18 07:45:26;;;;;;;15.37;9.10;;;9.00;99.90;;;;;;4210746;28;20233;-73
2023/04/18 07:47:28;;;;;;;13.43;8.57;;;9.00;99.90;;;;;;4207613;28;20243;-74
2023/04/18 07:49:30;;;;;;;14.43;8.77;;;9.00;99.90;;;;;;4212154;28;20279;-74
2023/04/18 07:51:33;;;;;;;16.60;9.00;;;9.10;99.90;;;;;;4192085;28;20218;-73
2023/04/18 07:53:35;;;;;;;12.90;8.33;;;9.10;99.90;;;;;;4207705;28;20209;-74
2023/04/18 07:55:37;;;;;;;13.07;8.70;;;9.10;99.90;;;;;;4211827;28;20234;-73
2023/04/18 07:57:42;;;;;;;17.40;9.77;;;9.20;99.90;;;;;;4214494;28;20221;-74
2023/04/18 07:59:44;;;;;;;15.83;8.83;;;9.20;99.90;;;;;;4213106;28;20254;-74
2023/04/18 08:01:46;;;;;;;16.23;9.40;;;9.20;99.90;;;;;;4208015;28;20248;-74
2023/04/18 08:03:48;;;;;;;13.90;8.53;;;9.30;99.90;;;;;;4212085;28;20698;-74
2023/04/18 08:05:50;;;;;;;14.53;8.57;;;9.30;99.90;;;;;;4203937;28;20211;-74
2023/04/18 08:07:52;;;;;;;13.63;7.83;;;9.40;99.90;;;;;;4187910;28;20212;-74
2023/04/18 08:09:54;;;;;;;16.00;8.73;;;9.40;99.90;;;;;;4192729;28;20813;-74
2023/04/18 08:11:57;;;;;;;13.33;8.40;;;9.40;99.90;;;;;;4190645;28;20231;-74
2023/04/18 08:14:01;;;;;;;15.53;8.90;;;9.50;99.90;;;;;;4209316;28;20576;-74
2023/04/18 08:16:02;;;;;;;14.40;8.27;;;9.60;99.90;;;;;;4206263;28;20615;-73
2023/04/18 08:18:05;;;;;;;14.57;8.37;;;9.60;99.90;;;;;;4206419;28;20208;-74
2023/04/18 08:20:07;;;;;;;15.10;7.80;;;9.60;99.90;;;;;;4208438;28;20281;-74
2023/04/18 08:22:10;;;;;;;12.33;7.57;;;9.60;99.90;;;;;;4210923;28;20211;-74
2023/04/18 08:24:12;;;;;;;15.53;7.80;;;9.70;99.90;;;;;;4211474;28;20287;-74
2023/04/18 08:26:14;;;;;;;14.00;7.67;;;9.70;99.90;;;;;;4210373;28;20845;-74
2023/04/18 08:28:15;;;;;;;12.77;7.03;;;9.70;99.90;;;;;;4208488;28;20235;-74
2023/04/18 08:30:19;;;;;;;13.47;7.90;;;9.80;99.90;;;;;;4209824;28;20247;-74
2023/04/18 08:32:21;;;;;;;13.53;7.70;;;9.80;99.90;;;;;;4212139;28;20235;-75
2023/04/18 08:34:23;;;;;;;12.17;7.10;;;9.90;99.90;;;;;;4208506;28;20235;-75
2023/04/18 08:36:24;;;;;;;13.33;7.13;;;9.90;99.90;;;;;;4208206;28;20327;-75
2023/04/18 08:38:26;;;;;;;13.33;7.73;;;10.00;99.90;;;;;;4211715;28;20239;-75
2023/04/18 08:40:29;;;;;;;11.37;7.40;;;10.10;99.90;;;;;;4210432;28;20201;-74
2023/04/18 08:42:32;;;;;;;12.77;7.87;;;10.20;99.90;;;;;;4206406;28;20239;-75
2023/04/18 08:44:34;;;;;;;13.80;7.47;;;10.30;99.90;;;;;;4209956;28;20662;-75
2023/04/18 08:46:38;;;;;;;12.10;7.53;;;10.30;99.90;;;;;;4188948;28;20300;-75
2023/04/18 08:48:40;;;;;;;14.83;9.00;;;10.40;99.90;;;;;;4205187;28;20690;-74
2023/04/18 08:50:42;;;;;;;12.97;7.83;;;10.40;99.90;;;;;;4208561;28;20209;-74
2023/04/18 08:52:47;;;;;;;14.00;7.80;;;10.50;99.90;;;;;;4204522;28;20715;-74
2023/04/18 08:54:50;;;;;;;12.03;7.33;;;10.50;99.90;;;;;;4208005;28;20201;-77
2023/04/18 08:57:04;;;;;;;13.30;7.60;;;10.60;99.90;;;;;;4207933;28;20656;-74
2023/04/18 08:59:06;;;;;;;13.47;7.77;;;10.60;99.90;;;;;;4206277;28;20221;-74
2023/04/18 09:01:08;;;;;;;13.57;7.90;;;10.60;99.90;;;;;;4209547;28;20200;-74
2023/04/18 09:03:14;;;;;;;10.80;7.07;;;10.70;99.90;;;;;;4206753;28;20204;-74
2023/04/18 09:05:18;;;;;;;12.70;7.23;;;10.70;99.90;;;;;;4208301;28;20200;-74
2023/04/18 09:07:27;;;;;;;13.07;8.23;;;10.70;99.90;;;;;;4206404;28;20208;-74
2023/04/18 09:09:46;;;;;;;14.37;7.77;;;10.80;99.90;;;;;;4207605;28;20311;-74
2023/04/18 09:11:47;;;;;;;14.93;8.10;;;10.80;99.90;;;;;;4204900;28;20199;-74
2023/04/18 09:13:51;;;;;;;13.23;8.10;;;10.80;99.90;;;;;;4208367;28;20701;-74
2023/04/18 09:15:54;;;;;;;15.33;9.07;;;10.90;99.90;;;;;;4207246;28;20213;-75
2023/04/18 09:17:58;;;;;;;13.97;7.90;;;10.90;99.90;;;;;;4205543;28;20220;-75
2023/04/18 09:20:05;;;;;;;12.90;7.97;;;10.90;99.90;;;;;;4209375;28;20222;-75
2023/04/18 09:22:08;;;;;;;14.23;8.37;;;11.00;99.90;;;;;;4206741;28;20212;-74
2023/04/18 09:24:19;;;;;;;13.50;7.90;;;11.00;99.90;;;;;;4203415;28;20206;-74
2023/04/18 09:26:33;;;;;;;15.03;8.70;;;11.10;99.90;;;;;;4207534;28;20216;-75
2023/04/18 09:28:36;;;;;;;13.30;7.87;;;11.10;99.90;;;;;;4204713;28;21017;-74
2023/04/18 09:30:39;;;;;;;13.77;7.97;;;11.10;99.90;;;;;;4204655;28;20810;-74
2023/04/18 09:32:43;;;;;;;13.00;7.73;;;11.20;99.90;;;;;;4192925;28;20285;-80
2023/04/18 09:34:46;;;;;;;13.30;8.27;;;11.20;99.90;;;;;;4204949;28;20281;-74
2023/04/18 09:37:06;;;;;;;16.43;8.60;;;11.30;99.90;;;;;;4206541;28;20207;-75
2023/04/18 09:39:11;;;;;;;14.90;8.40;;;11.40;99.90;;;;;;4205692;28;20769;-75
2023/04/18 09:41:15;;;;;;;14.73;8.53;;;11.40;99.90;;;;;;4207875;28;20287;-75
2023/04/18 09:43:19;;;;;;;18.03;8.97;;;11.30;99.90;;;;;;4191221;28;20289;-75
2023/04/18 09:45:22;;;;;;;15.17;8.90;;;11.30;99.90;;;;;;4210667;28;20205;-75
2023/04/18 09:47:24;;;;;;;14.50;9.00;;;11.30;99.90;;;;;;4207920;28;20209;-74
2023/04/18 09:49:26;;;;;;;15.13;8.47;;;11.30;99.90;;;;;;4207664;28;20213;-75
2023/04/18 09:51:30;;;;;;;15.63;8.80;;;11.20;99.90;;;;;;4211305;28;20253;-75
2023/04/18 09:53:34;;;;;;;16.40;9.03;;;11.20;99.90;;;;;;4213581;28;20838;-77
2023/04/18 09:55:38;;;;;;;12.60;8.50;;;11.20;99.90;;;;;;4190862;28;20215;-76
2023/04/18 09:57:44;;;;;;;13.10;8.17;;;11.30;99.90;;;;;;4215195;28;20225;-75
2023/04/18 09:59:51;;;;;;;13.33;8.27;;;11.40;99.90;;;;;;4217670;28;20983;-77
2023/04/18 10:01:54;;;;;;;12.43;7.80;;;11.50;99.90;;;;;;4208205;28;20320;-76
2023/04/18 10:03:57;;;;;;;11.60;7.93;;;11.60;99.90;;;;;;4211087;28;20236;-76
2023/04/18 10:05:59;;;;;;;12.80;7.73;;;11.70;99.90;;;;;;4191931;28;20237;-78
2023/04/18 10:08:02;;;;;;;14.27;8.40;;;11.80;99.90;;;;;;4214687;28;20220;-77
2023/04/18 10:10:07;;;;;;;14.23;8.53;;;11.90;99.90;;;;;;4212045;28;20719;-77
2023/04/18 10:12:11;;;;;;;14.33;9.03;;;12.00;99.90;;;;;;4211193;28;20194;-76
2023/04/18 10:14:15;;;;;;;13.30;8.30;;;12.00;99.90;;;;;;4196108;28;20308;-76
2023/04/18 10:16:19;;;;;;;12.40;8.10;;;12.10;99.90;;;;;;4214519;28;20607;-75
2023/04/18 10:18:23;;;;;;;13.67;8.17;;;12.20;99.90;;;;;;4212645;28;20669;-79
2023/04/18 10:20:27;;;;;;;14.97;8.13;;;12.20;99.90;;;;;;4215802;28;20206;-76
2023/04/18 10:22:29;;;;;;;12.03;7.63;;;12.30;99.90;;;;;;4213498;28;20213;-76
2023/04/18 10:24:51;;;;;;;13.47;8.37;;;12.30;99.90;;;;;;4204338;28;20640;-73
2023/04/18 10:26:55;;;;;;;13.13;7.80;;;12.30;99.90;;;;;;4210332;28;20197;-73
2023/04/18 10:28:59;;;;;;;12.20;8.23;;;12.30;99.90;;;;;;4210964;28;20235;-73
2023/04/18 10:31:03;;;;;;;13.23;8.23;;;12.30;99.90;;;;;;4205804;28;20199;-74
2023/04/18 10:33:25;;;;;;;12.70;8.43;;;12.30;99.90;;;;;;4209095;28;20659;-74
2023/04/18 10:35:27;;;;;;;11.77;8.07;;;12.30;99.90;;;;;;4209405;28;20217;-73